Time;durP1;ratioP1;P1;durP2;ratioP2;P2;SDS_P1;SDS_P2;PMS_P1;PMS_P2;Temp;Humidity;BMP_temperature;BMP_pressure;BME280_temperature;BME280_humidity;BME280_pressure;Samples;Min_cycle;Max_cycle;Signal;HPM_P1;HPM_P2
2023/12/08 00:01:40;;;;;;;260.40;102.30;;;;;;;-1.43;100.00;99374.65;268895;1270;22549;-89
2023/12/08 00:07:43;;;;;;;254.30;102.80;;;;;;;-1.41;100.00;99369.80;272121;1273;22254;-89
2023/12/08 00:13:45;;;;;;;258.70;100.20;;;;;;;-1.43;100.00;99352.70;271253;1272;22208;-90
2023/12/08 00:19:47;;;;;;;255.90;94.20;;;;;;;-1.45;100.00;99349.10;272195;1272;22483;-90
2023/12/08 00:25:49;;;;;;;259.90;97.90;;;;;;;-1.45;100.00;99351.90;272196;1272;22525;-90
2023/12/08 00:31:51;;;;;;;241.10;94.00;;;;;;;-1.43;100.00;99348.33;272048;1273;23248;-90
2023/12/08 00:37:54;;;;;;;254.70;99.90;;;;;;;-1.41;100.00;99347.83;272076;1273;23468;-90
2023/12/08 00:43:56;;;;;;;254.60;98.80;;;;;;;-1.44;100.00;99337.55;270701;1272;22706;-89
2023/12/08 00:49:59;;;;;;;240.80;93.30;;;;;;;-1.47;100.00;99352.59;271931;1273;22410;-90
2023/12/08 00:56:01;;;;;;;244.00;94.60;;;;;;;-1.52;100.00;99370.57;270816;1274;22568;-89
2023/12/08 01:02:05;;;;;;;255.90;97.80;;;;;;;-1.52;100.00;99373.75;269998;1263;22930;-91
2023/12/08 01:08:07;;;;;;;273.70;98.00;;;;;;;-1.53;100.00;99371.77;271419;1272;22560;-90
2023/12/08 01:14:09;;;;;;;273.90;102.70;;;;;;;-1.56;100.00;99363.46;269387;1273;22298;-91
2023/12/08 01:20:11;;;;;;;274.60;101.20;;;;;;;-1.59;100.00;99359.96;269929;1273;24418;-90
2023/12/08 01:26:13;;;;;;;263.40;99.40;;;;;;;-1.61;100.00;99355.90;270228;1274;23810;-89
2023/12/08 01:32:15;;;;;;;272.20;98.40;;;;;;;-1.63;100.00;99353.93;271169;1273;22436;-90
2023/12/08 01:38:17;;;;;;;252.00;91.30;;;;;;;-1.63;100.00;99350.29;272118;1273;23183;-89
2023/12/08 01:44:19;;;;;;;240.00;90.50;;;;;;;-1.66;100.00;99354.25;272132;1272;23558;-89
2023/12/08 01:50:58;;;;;;;254.30;96.10;;;;;;;-1.68;100.00;99350.41;271740;1274;23252;-90
2023/12/08 01:57:02;;;;;;;263.50;97.40;;;;;;;-1.67;100.00;99347.29;270747;1273;22464;-87
2023/12/08 02:03:05;;;;;;;259.20;93.90;;;;;;;-1.68;100.00;99344.44;271931;1273;22196;-87
2023/12/08 02:09:07;;;;;;;256.70;100.60;;;;;;;-1.68;100.00;99340.16;270695;1272;24620;-88
2023/12/08 02:15:12;;;;;;;275.80;103.90;;;;;;;-1.68;100.00;99337.41;269821;1274;22369;-88
2023/12/08 02:21:17;;;;;;;274.90;102.40;;;;;;;-1.70;100.00;99333.99;271977;1272;22423;-88
2023/12/08 02:27:19;;;;;;;262.70;99.60;;;;;;;-1.72;100.00;99337.09;271957;1272;22623;-88
2023/12/08 02:33:28;;;;;;;274.50;99.20;;;;;;;-1.72;100.00;99340.26;271735;1269;102835;-89
2023/12/08 02:39:34;;;;;;;270.90;98.90;;;;;;;-1.71;100.00;99335.84;270421;1272;22527;-88
2023/12/08 02:45:36;;;;;;;268.10;98.70;;;;;;;-1.70;100.00;99333.14;270097;1272;23957;-89
2023/12/08 02:51:41;;;;;;;284.90;104.60;;;;;;;-1.72;100.00;99335.75;270206;1272;22547;-88
2023/12/08 02:57:44;;;;;;;271.00;98.50;;;;;;;-1.77;100.00;99337.58;270104;1272;22567;-89
2023/12/08 03:03:50;;;;;;;288.80;99.80;;;;;;;-1.80;100.00;99342.98;270306;1272;22618;-89
2023/12/08 03:09:55;;;;;;;264.30;91.20;;;;;;;-1.81;100.00;99351.15;269609;1272;23738;-89
2023/12/08 03:15:59;;;;;;;297.70;96.90;;;;;;;-1.81;100.00;99358.71;269894;1271;22533;-89
2023/12/08 03:22:03;;;;;;;277.00;94.30;;;;;;;-1.80;100.00;99356.70;269655;1272;23026;-89
2023/12/08 03:28:06;;;;;;;291.60;97.10;;;;;;;-1.82;100.00;99351.69;269850;1272;22550;-89
2023/12/08 03:34:09;;;;;;;287.90;96.30;;;;;;;-1.85;100.00;99352.75;269968;1272;24551;-89
2023/12/08 03:40:14;;;;;;;285.30;93.70;;;;;;;-1.89;100.00;99360.90;269907;1272;22591;-89
2023/12/08 03:46:19;;;;;;;287.50;96.00;;;;;;;-1.92;100.00;99362.98;270061;1270;23372;-89
2023/12/08 03:52:23;;;;;;;282.40;91.80;;;;;;;-1.97;100.00;99362.33;270095;1272;22511;-89
2023/12/08 03:58:28;;;;;;;275.90;93.80;;;;;;;-2.03;100.00;99356.71;270007;1271;22555;-88
2023/12/08 04:04:35;;;;;;;262.80;89.60;;;;;;;-2.10;100.00;99353.98;272306;1272;23451;-89
2023/12/08 04:10:40;;;;;;;271.30;90.40;;;;;;;-2.16;100.00;99346.38;272235;1271;22426;-89
2023/12/08 04:16:44;;;;;;;266.60;89.60;;;;;;;-2.19;100.00;99344.00;272234;1272;22212;-89
2023/12/08 04:22:51;;;;;;;270.50;90.50;;;;;;;-2.26;100.00;99331.23;272403;1271;22240;-89
2023/12/08 04:28:58;;;;;;;264.90;89.80;;;;;;;-2.33;100.00;99328.40;272345;1262;24036;-89
2023/12/08 04:35:02;;;;;;;248.60;87.10;;;;;;;-2.40;100.00;99322.11;269814;1271;22545;-89
2023/12/08 04:41:13;;;;;;;263.40;85.70;;;;;;;-2.50;100.00;99320.52;270151;1272;22621;-90
2023/12/08 04:58:12;;;;;;;271.30;92.60;;;;;;;-2.38;100.00;99316.02;262322;1295;3016844;-89
2023/12/08 05:04:17;;;;;;;288.50;91.10;;;;;;;-2.52;100.00;99313.16;268856;1279;23777;-90
2023/12/08 05:10:20;;;;;;;271.40;89.90;;;;;;;-2.65;100.00;99314.57;268728;1280;22542;-88
2023/12/08 05:16:23;;;;;;;282.50;92.00;;;;;;;-2.72;100.00;99315.38;268432;1280;22629;-90
2023/12/08 05:22:25;;;;;;;284.00;93.70;;;;;;;-2.78;100.00;99311.83;268698;1280;22615;-89
2023/12/08 05:28:34;;;;;;;245.10;80.20;;;;;;;-2.89;100.00;99302.33;268894;1279;23249;-89
2023/12/08 05:34:42;;;;;;;202.70;73.20;;;;;;;-3.05;100.00;99301.85;268894;1279;22567;-89
2023/12/08 05:40:45;;;;;;;187.70;67.20;;;;;;;-3.17;100.00;99301.73;268430;1280;22572;-90
2023/12/08 05:46:53;;;;;;;183.00;64.30;;;;;;;-3.31;100.00;99296.61;268760;1282;23713;-89
2023/12/08 05:52:55;;;;;;;173.80;65.00;;;;;;;-3.39;100.00;99305.17;268743;1280;22602;-89
2023/12/08 05:58:59;;;;;;;177.90;65.60;;;;;;;-3.44;100.00;99309.55;268513;1279;23162;-90
2023/12/08 06:05:01;;;;;;;175.60;64.80;;;;;;;-3.51;100.00;99307.06;268711;1280;22700;-90
2023/12/08 06:11:06;;;;;;;180.30;64.70;;;;;;;-3.57;100.00;99305.66;268579;1282;23296;-90
2023/12/08 06:17:08;;;;;;;166.60;60.50;;;;;;;-3.60;100.00;99316.31;269006;1282;22611;-90
2023/12/08 06:23:12;;;;;;;183.60;63.10;;;;;;;-3.62;100.00;99320.98;268681;1278;22739;-88
2023/12/08 06:29:17;;;;;;;172.50;61.20;;;;;;;-3.72;100.00;99303.96;268657;1280;25179;-88
2023/12/08 06:35:20;;;;;;;175.30;59.30;;;;;;;-3.79;100.00;99308.53;269271;1270;24692;-89
2023/12/08 06:41:24;;;;;;;167.60;60.30;;;;;;;-3.81;100.00;99312.99;268979;1282;22543;-89
2023/12/08 06:47:28;;;;;;;178.80;58.70;;;;;;;-3.82;100.00;99315.13;268901;1279;22536;-89
2023/12/08 06:53:32;;;;;;;178.40;61.70;;;;;;;-3.84;100.00;99312.73;268360;1280;22570;-88
2023/12/08 06:59:35;;;;;;;160.00;60.70;;;;;;;-3.91;100.00;99301.27;272058;1274;22336;-88
2023/12/08 07:05:37;;;;;;;165.90;60.00;;;;;;;-3.94;100.00;99297.75;271783;1273;22392;-90
2023/12/08 07:11:40;;;;;;;155.30;56.80;;;;;;;-3.92;100.00;99304.96;270829;1273;22551;-89
2023/12/08 07:17:43;;;;;;;165.10;62.10;;;;;;;-3.88;100.00;99312.80;269803;1273;23833;-89
2023/12/08 07:23:46;;;;;;;163.10;65.00;;;;;;;-3.83;100.00;99310.55;269910;1273;22536;-89
2023/12/08 07:29:52;;;;;;;168.60;65.40;;;;;;;-3.75;100.00;99311.41;270048;1273;22909;-89
2023/12/08 07:35:54;;;;;;;176.60;63.80;;;;;;;-3.64;100.00;99307.94;270264;1273;22558;-89
2023/12/08 07:41:59;;;;;;;159.10;56.60;;;;;;;-3.54;100.00;99311.89;270132;1273;22230;-89
2023/12/08 07:48:08;;;;;;;143.20;55.50;;;;;;;-3.40;100.00;99325.37;269734;1267;23397;-89
2023/12/08 07:54:11;;;;;;;150.60;55.00;;;;;;;-3.34;100.00;99329.15;269277;1273;22534;-89
2023/12/08 08:00:14;;;;;;;155.10;55.90;;;;;;;-3.28;100.00;99335.36;269236;1273;22521;-89
2023/12/08 08:06:16;;;;;;;146.80;51.70;;;;;;;-3.24;100.00;99334.42;269748;1273;23287;-89
2023/12/08 08:12:20;;;;;;;147.30;57.10;;;;;;;-3.20;100.00;99332.59;270100;1273;22527;-89
2023/12/08 08:18:23;;;;;;;146.90;56.70;;;;;;;-3.09;100.00;99335.35;270196;1273;22528;-89
2023/12/08 08:24:28;;;;;;;160.10;56.50;;;;;;;-2.88;100.00;99338.86;269805;1273;23351;-89
2023/12/08 08:30:33;;;;;;;147.00;54.20;;;;;;;-2.56;100.00;99322.94;269490;1274;22514;-89
2023/12/08 08:36:40;;;;;;;129.60;50.50;;;;;;;-2.26;100.00;99309.63;269922;1273;24817;-88
2023/12/08 08:42:43;;;;;;;129.00;53.30;;;;;;;-1.88;100.00;99300.40;269726;1273;22527;-88
2023/12/08 08:48:46;;;;;;;125.30;50.30;;;;;;;-1.44;100.00;99298.02;269832;1273;22584;-88
2023/12/08 08:54:52;;;;;;;119.70;49.90;;;;;;;-1.05;100.00;99299.23;269534;1264;22625;-88
2023/12/08 09:00:56;;;;;;;;;;;;;;;-0.56;100.00;99301.55;269200;1273;22513;-88
2023/12/08 09:07:03;;;;;;;117.30;51.30;;;;;;;-0.20;100.00;99294.14;272191;1273;22307;-88
2023/12/08 09:13:09;;;;;;;120.60;50.10;;;;;;;0.16;100.00;99295.22;272144;1273;22555;-89
2023/12/08 09:19:13;;;;;;;112.00;47.50;;;;;;;0.56;100.00;99299.27;272229;1273;23514;-89
2023/12/08 09:25:24;;;;;;;101.50;45.00;;;;;;;0.97;100.00;99292.67;272088;1273;22290;-90
2023/12/08 09:31:28;;;;;;;102.80;45.80;;;;;;;1.19;100.00;99285.65;273212;1269;22329;-89
2023/12/08 09:37:32;;;;;;;100.80;44.10;;;;;;;1.45;100.00;99280.36;272321;1269;22563;-90
2023/12/08 09:43:43;;;;;;;84.80;39.90;;;;;;;1.85;100.00;99267.92;269999;1269;23393;-89
2023/12/08 09:49:48;;;;;;;80.70;37.90;;;;;;;1.93;100.00;99253.83;269999;1269;25738;-90
2023/12/08 09:55:51;;;;;;;77.90;36.00;;;;;;;1.89;100.00;99229.64;270138;1269;23021;-90
2023/12/08 10:01:58;;;;;;;70.40;34.80;;;;;;;2.01;100.00;99222.56;270361;1269;22712;-90
2023/12/08 10:08:02;;;;;;;74.30;35.00;;;;;;;2.02;100.00;99216.63;270044;1269;23708;-89
2023/12/08 10:14:07;;;;;;;63.90;30.70;;;;;;;1.92;100.00;99203.86;270417;1269;23514;-89
2023/12/08 10:20:29;;;;;;;60.40;28.90;;;;;;;1.92;100.00;99204.36;270428;1269;23760;-89
2023/12/08 10:26:34;;;;;;;56.10;27.40;;;;;;;1.98;100.00;99203.68;273140;1269;22416;-90
2023/12/08 10:32:39;;;;;;;63.10;28.10;;;;;;;1.91;100.00;99199.89;273015;1269;22391;-90
2023/12/08 10:38:44;;;;;;;58.80;28.40;;;;;;;1.72;100.00;99202.20;271677;1269;22590;-89
2023/12/08 10:44:47;;;;;;;55.80;26.50;;;;;;;1.72;100.00;99207.05;270707;1269;22595;-89
2023/12/08 10:50:52;;;;;;;59.90;28.20;;;;;;;1.59;100.00;99201.70;270621;1269;22558;-89
2023/12/08 10:56:56;;;;;;;63.20;28.60;;;;;;;1.41;100.00;99205.31;270438;1269;22589;-90
2023/12/08 11:03:01;;;;;;;60.60;29.00;;;;;;;1.30;100.00;99209.11;270338;1269;22560;-89
2023/12/08 11:09:07;;;;;;;57.70;27.90;;;;;;;1.19;100.00;99207.30;270360;1269;22560;-89
2023/12/08 11:15:18;;;;;;;61.30;28.70;;;;;;;1.06;100.00;99204.48;270367;1269;22497;-89
2023/12/08 11:21:30;;;;;;;70.60;35.00;;;;;;;0.96;100.00;99209.27;270302;1259;22579;-89
2023/12/08 11:28:02;;;;;;;77.90;36.70;;;;;;;0.88;100.00;99202.95;270417;1269;22573;-88
2023/12/08 11:34:25;;;;;;;76.90;36.30;;;;;;;0.70;100.00;99207.52;270380;1269;22564;-89
2023/12/08 11:40:32;;;;;;;80.50;37.40;;;;;;;0.55;100.00;99204.27;270408;1269;22936;-89
2023/12/08 11:46:39;;;;;;;81.10;36.00;;;;;;;0.49;100.00;99199.34;270211;1269;22546;-89
2023/12/08 11:52:42;;;;;;;76.70;36.20;;;;;;;0.37;100.00;99188.84;270465;1269;22523;-89
2023/12/08 11:58:45;;;;;;;81.00;35.50;;;;;;;0.25;100.00;99182.31;270374;1268;22625;-88
2023/12/08 12:05:08;;;;;;;75.10;33.70;;;;;;;0.14;100.00;99180.47;270366;1269;22531;-89
2023/12/08 12:11:11;;;;;;;78.80;33.50;;;;;;;0.12;100.00;99170.29;270360;1269;22499;-89
2023/12/08 12:17:15;;;;;;;71.20;34.60;;;;;;;0.14;100.00;99163.23;270546;1269;24227;-89
2023/12/08 12:23:18;;;;;;;75.80;36.00;;;;;;;0.18;100.00;99163.79;270860;1269;22548;-89
2023/12/08 12:29:22;;;;;;;79.80;35.10;;;;;;;0.20;100.00;99170.74;270134;1269;23889;-89
2023/12/08 12:35:27;;;;;;;72.30;33.00;;;;;;;0.14;100.00;99172.34;270255;1269;23888;-90
2023/12/08 12:41:31;;;;;;;80.90;38.20;;;;;;;0.02;100.00;99172.33;270389;1269;25726;-89
2023/12/08 12:47:35;;;;;;;71.80;33.80;;;;;;;-0.11;100.00;99162.81;270050;1269;22542;-90
2023/12/08 12:53:46;;;;;;;80.80;34.70;;;;;;;-0.25;100.00;99161.49;270056;1268;22555;-88
2023/12/08 12:59:55;;;;;;;79.50;36.40;;;;;;;-0.35;100.00;99155.11;269916;1269;22574;-89
2023/12/08 13:05:58;;;;;;;75.40;35.40;;;;;;;-0.42;100.00;99147.73;269977;1269;25546;-89
2023/12/08 13:12:01;;;;;;;80.70;37.40;;;;;;;-0.44;100.00;99137.93;269944;1269;22329;-89
2023/12/08 13:18:09;;;;;;;83.10;38.20;;;;;;;-0.48;100.00;99140.86;270411;1269;24480;-89
2023/12/08 13:24:12;;;;;;;79.80;36.20;;;;;;;-0.54;100.00;99142.05;270442;1269;22547;-88
2023/12/08 13:30:14;;;;;;;78.50;35.10;;;;;;;-0.56;100.00;99149.69;270258;1269;24278;-89
2023/12/08 13:36:17;;;;;;;80.40;36.00;;;;;;;-0.54;100.00;99154.64;270624;1269;22611;-88
2023/12/08 13:42:20;;;;;;;73.00;34.40;;;;;;;-0.58;100.00;99166.78;270860;1269;22543;-89
2023/12/08 13:48:23;;;;;;;76.30;33.80;;;;;;;-0.67;100.00;99174.20;270860;1269;23502;-88
2023/12/08 13:54:33;;;;;;;72.30;34.20;;;;;;;-0.72;100.00;99171.98;270963;1269;22514;-89
2023/12/08 14:00:37;;;;;;;70.20;33.30;;;;;;;-0.81;100.00;99163.66;270997;1269;24261;-89
2023/12/08 14:06:41;;;;;;;73.40;34.10;;;;;;;-0.88;100.00;99163.25;271071;1269;22524;-89
2023/12/08 14:12:44;;;;;;;69.50;33.00;;;;;;;-0.93;100.00;99173.17;271039;1269;22504;-90
2023/12/08 14:18:48;;;;;;;72.90;33.80;;;;;;;-1.01;100.00;99168.52;270858;1269;22527;-90
2023/12/08 14:24:50;;;;;;;74.10;33.90;;;;;;;-1.07;100.00;99152.69;270915;1269;23047;-89
2023/12/08 14:30:55;;;;;;;67.60;31.70;;;;;;;-1.13;100.00;99152.35;271033;1269;22587;-90
2023/12/08 14:36:57;;;;;;;70.70;33.10;;;;;;;-1.19;100.00;99157.56;271263;1269;22546;-90
2023/12/08 14:42:59;;;;;;;70.10;33.60;;;;;;;-1.24;100.00;99157.00;271387;1269;22563;-89
2023/12/08 14:49:04;;;;;;;66.80;32.00;;;;;;;-1.25;100.00;99157.67;271010;1269;22601;-90
2023/12/08 14:55:09;;;;;;;68.80;31.00;;;;;;;-1.29;100.00;99167.27;270873;1269;23584;-90
2023/12/08 15:01:17;;;;;;;64.90;29.10;;;;;;;-1.32;100.00;99178.61;271137;1258;22564;-89
2023/12/08 15:07:19;;;;;;;63.00;29.70;;;;;;;-1.36;100.00;99169.52;271280;1269;23342;-89
2023/12/08 15:13:22;;;;;;;64.60;28.50;;;;;;;-1.41;100.00;99165.98;270859;1269;22517;-90
2023/12/08 15:19:27;;;;;;;63.70;28.80;;;;;;;-1.45;100.00;99167.76;271074;1263;22542;-89
2023/12/08 15:25:29;;;;;;;60.30;28.10;;;;;;;-1.50;100.00;99169.17;271052;1269;22545;-89
2023/12/08 15:31:34;;;;;;;64.60;28.10;;;;;;;-1.50;100.00;99176.10;271338;1269;22592;-91
2023/12/08 15:37:37;;;;;;;61.00;28.40;;;;;;;-1.51;100.00;99178.75;271372;1269;22550;-90
2023/12/08 15:43:44;;;;;;;67.60;31.00;;;;;;;-1.51;100.00;99178.85;270949;1269;22514;-90
2023/12/08 15:49:47;;;;;;;65.40;31.50;;;;;;;-1.49;100.00;99180.02;270774;1269;22489;-90
2023/12/08 15:55:52;;;;;;;76.00;32.30;;;;;;;-1.54;100.00;99176.21;270528;1269;23608;-90
2023/12/08 16:02:11;;;;;;;66.20;31.10;;;;;;;-1.55;100.00;99186.55;270592;1269;24955;-90
2023/12/08 16:08:13;;;;;;;71.20;32.70;;;;;;;-1.54;100.00;99193.02;270991;1269;24047;-89
2023/12/08 16:14:17;;;;;;;68.50;33.50;;;;;;;-1.53;100.00;99188.71;270818;1269;23952;-89
2023/12/08 16:20:20;;;;;;;72.90;33.40;;;;;;;-1.53;100.00;99183.30;270626;1269;22659;-89
2023/12/08 16:26:23;;;;;;;84.20;38.20;;;;;;;-1.54;100.00;99187.39;270927;1269;22331;-90
2023/12/08 16:32:25;;;;;;;76.20;34.90;;;;;;;-1.55;100.00;99178.32;271187;1269;22513;-90
2023/12/08 16:38:30;;;;;;;75.50;35.00;;;;;;;-1.55;100.00;99173.81;271383;1269;22545;-89
2023/12/08 16:44:34;;;;;;;;;;;;;;;-1.57;100.00;99173.63;271264;1269;22637;-90
2023/12/08 16:50:36;;;;;;;103.00;43.50;;;;;;;-1.59;100.00;99167.06;270740;1269;23799;-89
2023/12/08 16:56:41;;;;;;;77.80;34.50;;;;;;;-1.62;100.00;99154.05;270257;1268;283188;-88
2023/12/08 17:02:45;;;;;;;72.20;32.60;;;;;;;-1.67;100.00;99154.40;270747;1269;22233;-89
2023/12/08 17:08:48;;;;;;;63.80;30.70;;;;;;;-1.71;100.00;99145.23;270624;1269;22313;-89
2023/12/08 17:14:51;;;;;;;71.30;33.70;;;;;;;-1.73;100.00;99151.91;270751;1268;22524;-90
2023/12/08 17:20:53;;;;;;;74.50;32.20;;;;;;;-1.74;100.00;99156.55;271079;1269;22530;-90
2023/12/08 17:26:56;;;;;;;71.40;32.00;;;;;;;-1.75;100.00;99159.29;270701;1269;23674;-89
2023/12/08 17:32:58;;;;;;;70.30;31.50;;;;;;;-1.76;100.00;99162.80;271206;1268;23376;-90
2023/12/08 17:39:02;;;;;;;64.70;30.50;;;;;;;-1.81;100.00;99160.83;271322;1269;22599;-88
2023/12/08 17:45:07;;;;;;;67.20;33.10;;;;;;;-1.85;100.00;99158.46;271077;1269;22552;-88
2023/12/08 17:51:10;;;;;;;71.20;32.70;;;;;;;-1.86;100.00;99160.52;270976;1269;22196;-89
2023/12/08 17:57:13;;;;;;;75.30;33.10;;;;;;;-1.82;100.00;99167.57;270677;1268;22826;-89
2023/12/08 18:03:18;;;;;;;75.10;32.90;;;;;;;-1.81;100.00;99177.61;256273;1269;20002819;-89
2023/12/08 18:09:20;;;;;;;69.50;32.40;;;;;;;-1.81;100.00;99188.84;271254;1269;24138;-90
2023/12/08 18:15:25;;;;;;;69.50;30.90;;;;;;;-1.81;100.00;99194.42;271354;1269;23584;-89
2023/12/08 18:21:33;;;;;;;68.60;31.70;;;;;;;-1.82;100.00;99202.06;271222;1269;23807;-88
2023/12/08 18:27:36;;;;;;;72.00;32.80;;;;;;;-1.82;100.00;99202.65;271428;1269;22412;-89
2023/12/08 18:33:39;;;;;;;73.20;32.20;;;;;;;-1.83;100.00;99204.06;271563;1269;22318;-89
2023/12/08 18:39:41;;;;;;;72.90;32.40;;;;;;;-1.83;100.00;99205.45;271647;1268;23910;-89
2023/12/08 18:45:46;;;;;;;67.90;31.80;;;;;;;-1.77;100.00;99208.85;271898;1269;22515;-89
2023/12/08 18:51:50;;;;;;;77.20;34.70;;;;;;;-1.70;100.00;99212.20;272004;1269;22502;-89
2023/12/08 18:57:53;;;;;;;79.40;35.50;;;;;;;-1.67;100.00;99210.65;272115;1268;22229;-89
2023/12/08 19:03:57;;;;;;;81.30;36.10;;;;;;;-1.67;100.00;99221.77;271646;1269;22719;-90
2023/12/08 19:09:59;;;;;;;72.40;35.00;;;;;;;-1.65;100.00;99222.12;271805;1269;22510;-89
2023/12/08 19:16:06;;;;;;;76.20;34.00;;;;;;;-1.67;100.00;99217.21;271626;1269;22576;-88
2023/12/08 19:22:09;;;;;;;67.00;32.60;;;;;;;-1.74;100.00;99215.75;271782;1269;22526;-89
2023/12/08 19:28:12;;;;;;;85.40;38.60;;;;;;;-1.81;100.00;99210.68;271406;1269;23577;-89
2023/12/08 19:34:22;;;;;;;71.50;31.60;;;;;;;-1.87;100.00;99204.06;271446;1269;22416;-89
